createdAt,value
2023-12-09T00:00:35.287Z,100711.91
2023-12-09T00:03:02.093Z,100721.16
2023-12-09T00:05:28.898Z,100717.31
2023-12-09T00:07:55.675Z,100725.88
2023-12-09T00:10:22.430Z,100732.13
2023-12-09T00:12:49.681Z,100721.91
2023-12-09T00:15:16.412Z,100725.53
2023-12-09T00:17:43.148Z,100720.25
2023-12-09T00:20:10.480Z,100716.81
2023-12-09T00:22:37.252Z,100719.84
2023-12-09T00:25:05.172Z,100718.13
2023-12-09T00:27:32.274Z,100713.31
2023-12-09T00:29:59.045Z,100717.53
2023-12-09T00:32:26.294Z,100715.88
2023-12-09T00:34:53.279Z,100716.66
2023-12-09T00:37:20.037Z,100716.59
2023-12-09T00:39:46.808Z,100708.47
2023-12-09T00:42:13.596Z,100720.25
2023-12-09T00:44:40.455Z,100720.13
2023-12-09T00:47:07.193Z,100716.34
2023-12-09T00:49:33.963Z,100717.63
2023-12-09T00:52:00.897Z,100722.38
2023-12-09T00:54:27.694Z,100721.13
2023-12-09T00:56:54.453Z,100721.31
2023-12-09T00:59:21.229Z,100723.44
2023-12-09T01:01:47.922Z,100720.19
2023-12-09T01:04:15.201Z,100723.81
2023-12-09T01:06:42.058Z,100721.38
2023-12-09T01:09:08.813Z,100710.53
2023-12-09T01:11:35.569Z,100710.06
2023-12-09T01:14:02.293Z,100718.84
2023-12-09T01:16:29.083Z,100712.72
2023-12-09T01:18:55.915Z,100715.63
2023-12-09T01:21:22.723Z,100721.44
2023-12-09T01:23:49.684Z,100718.97
2023-12-09T01:26:16.435Z,100720.25
2023-12-09T01:28:43.320Z,100721.53
2023-12-09T01:31:10.101Z,100726.72
2023-12-09T01:33:38.667Z,100709.56
2023-12-09T01:36:06.254Z,100712.75
2023-12-09T01:38:33.072Z,100703.41
2023-12-09T01:40:59.848Z,100704.03
2023-12-09T01:43:26.564Z,100707.38
2023-12-09T01:45:55.440Z,100706.47
2023-12-09T01:48:23.113Z,100711.91
2023-12-09T01:50:50.827Z,100713.75
2023-12-09T01:53:17.682Z,100709.84
2023-12-09T01:55:44.490Z,100714.31
2023-12-09T01:58:12.004Z,100717.59
2023-12-09T02:00:40.274Z,100722.25
2023-12-09T02:03:07.357Z,100722.31
2023-12-09T02:05:34.175Z,100725.81
2023-12-09T02:08:00.876Z,100716.38
2023-12-09T02:10:28.271Z,100709.31
2023-12-09T02:13:20.413Z,100702.97
2023-12-09T02:15:53.220Z,100697.91
2023-12-09T02:18:20.728Z,100696.13
2023-12-09T02:20:47.467Z,100694.97
2023-12-09T02:23:14.322Z,100695.03
2023-12-09T02:25:41.424Z,100686.34
2023-12-09T02:28:15.241Z,100683.53
2023-12-09T02:31:01.025Z,100672.13
2023-12-09T02:33:29.106Z,100670.06
2023-12-09T02:35:56.654Z,100659.66
2023-12-09T02:38:24.641Z,100654.16
2023-12-09T02:40:51.970Z,100669.09
2023-12-09T02:43:19.144Z,100659.53
2023-12-09T02:45:47.317Z,100658.91
2023-12-09T02:48:14.422Z,100653.94
2023-12-09T02:50:41.683Z,100655.38
2023-12-09T02:53:08.456Z,100646.31
2023-12-09T02:55:35.208Z,100644.81
2023-12-09T02:58:01.985Z,100652.13
2023-12-09T03:00:28.859Z,100648.56
2023-12-09T03:02:55.722Z,100651.13
2023-12-09T03:05:22.569Z,100650.69
2023-12-09T03:07:49.427Z,100649.94
2023-12-09T03:10:16.166Z,100643.69
2023-12-09T03:12:42.920Z,100636.63
2023-12-09T03:15:10.469Z,100639.66
2023-12-09T03:17:38.086Z,100631.28
2023-12-09T03:20:09.816Z,100622.38
2023-12-09T03:22:36.708Z,100618.88
2023-12-09T03:25:03.674Z,100619.81
2023-12-09T03:27:30.929Z,100617.13
2023-12-09T03:29:57.748Z,100613.56
2023-12-09T03:32:24.673Z,100616.41
2023-12-09T03:34:51.544Z,100613.91
2023-12-09T03:37:18.301Z,100612.25
2023-12-09T03:39:45.038Z,100614.09
2023-12-09T03:42:11.777Z,100602.63
2023-12-09T03:44:38.529Z,100609.00
2023-12-09T03:47:11.955Z,100604.50
2023-12-09T03:49:45.577Z,100603.56
2023-12-09T03:52:13.608Z,100606.13
2023-12-09T03:54:41.399Z,100605.91
2023-12-09T03:57:08.206Z,100601.72
2023-12-09T03:59:35.126Z,100606.13
2023-12-09T04:02:01.848Z,100614.97
2023-12-09T04:04:28.777Z,100619.25
2023-12-09T04:06:56.171Z,100616.97
2023-12-09T04:09:23.780Z,100622.59
2023-12-09T04:11:50.583Z,100617.97
2023-12-09T04:14:17.355Z,100606.19
2023-12-09T04:16:44.455Z,100612.75
2023-12-09T04:19:11.320Z,100606.91
2023-12-09T04:21:38.147Z,100604.56
2023-12-09T04:24:05.182Z,100604.06
2023-12-09T04:26:31.937Z,100595.28
2023-12-09T04:28:58.956Z,100602.91
2023-12-09T04:31:25.645Z,100595.84
2023-12-09T04:33:52.443Z,100610.53
2023-12-09T04:36:19.473Z,100596.94
2023-12-09T04:38:46.214Z,100597.63
2023-12-09T04:41:13.067Z,100592.00
2023-12-09T04:43:40.182Z,100588.44
2023-12-09T04:46:07.359Z,100575.84
2023-12-09T04:48:34.238Z,100577.88
2023-12-09T04:51:01.128Z,100577.16
2023-12-09T04:53:27.921Z,100575.47
2023-12-09T04:55:54.763Z,100562.41
2023-12-09T04:58:21.489Z,100556.19
2023-12-09T05:00:48.232Z,100565.03
2023-12-09T05:03:15.114Z,100562.34
2023-12-09T05:05:41.954Z,100564.91
2023-12-09T05:08:09.575Z,100566.53
2023-12-09T05:10:36.401Z,100575.38
2023-12-09T05:13:03.160Z,100574.31
2023-12-09T05:15:32.772Z,100571.56
2023-12-09T05:18:00.524Z,100567.16
2023-12-09T05:20:27.348Z,100548.91
2023-12-09T05:22:54.109Z,100549.06
2023-12-09T05:25:20.947Z,100550.84
2023-12-09T05:27:47.722Z,100559.94
2023-12-09T05:30:14.501Z,100546.63
2023-12-09T05:32:41.433Z,100545.63
2023-12-09T05:35:08.545Z,100536.00
2023-12-09T05:37:35.487Z,100526.75
2023-12-09T05:40:02.251Z,100538.09
2023-12-09T05:42:29.479Z,100533.84
2023-12-09T05:44:56.591Z,100532.56
2023-12-09T05:47:24.343Z,100526.72
2023-12-09T05:49:51.166Z,100534.00
2023-12-09T05:52:18.631Z,100521.53
2023-12-09T05:54:45.456Z,100529.69
2023-12-09T05:57:12.226Z,100525.69
2023-12-09T05:59:39.013Z,100523.84
2023-12-09T06:02:05.813Z,100525.19
2023-12-09T06:04:32.661Z,100519.28
2023-12-09T06:06:59.582Z,100514.88
2023-12-09T06:09:26.442Z,100511.59
2023-12-09T06:11:53.224Z,100512.06
2023-12-09T06:14:20.021Z,100502.31
2023-12-09T06:16:46.778Z,100503.28
2023-12-09T06:19:13.621Z,100498.44
2023-12-09T06:21:40.474Z,100501.00
2023-12-09T06:24:07.319Z,100496.41
2023-12-09T06:26:34.079Z,100508.81
2023-12-09T06:29:00.865Z,100507.38
2023-12-09T06:31:27.640Z,100505.47
2023-12-09T06:33:54.495Z,100503.09
2023-12-09T06:36:21.322Z,100500.47
2023-12-09T06:38:48.059Z,100486.53
2023-12-09T06:41:15.071Z,100480.97
2023-12-09T06:43:42.134Z,100486.03
2023-12-09T06:46:09.083Z,100479.81
2023-12-09T06:48:38.785Z,100479.66
2023-12-09T06:51:08.555Z,100467.63
2023-12-09T06:53:39.129Z,100467.31
2023-12-09T06:56:09.306Z,100476.09
2023-12-09T06:58:37.852Z,100476.34
2023-12-09T07:01:04.870Z,100473.28
2023-12-09T07:03:39.345Z,100461.50
2023-12-09T07:06:06.364Z,100454.13
2023-12-09T07:08:33.097Z,100450.56
2023-12-09T07:11:00.948Z,100447.38
2023-12-09T07:13:27.725Z,100450.41
2023-12-09T07:15:54.575Z,100435.78
2023-12-09T07:18:21.468Z,100439.66
2023-12-09T07:20:48.241Z,100438.00
2023-12-09T07:23:15.581Z,100442.66
2023-12-09T07:25:42.344Z,100430.00
2023-12-09T07:28:09.145Z,100428.91
2023-12-09T07:30:36.253Z,100417.34
2023-12-09T07:33:03.235Z,100419.03
2023-12-09T07:35:30.062Z,100406.94
2023-12-09T07:37:56.835Z,100404.16
2023-12-09T07:40:23.719Z,100400.53
2023-12-09T07:42:50.921Z,100396.97
2023-12-09T07:45:17.755Z,100385.66
2023-12-09T07:47:44.525Z,100378.91
2023-12-09T07:50:11.863Z,100371.19
2023-12-09T07:52:38.634Z,100368.22
2023-12-09T07:55:06.212Z,100366.50
2023-12-09T07:57:32.939Z,100365.78
2023-12-09T07:59:59.798Z,100368.38
2023-12-09T08:02:26.771Z,100355.19
2023-12-09T08:04:53.683Z,100348.19
2023-12-09T08:07:20.400Z,100353.47
2023-12-09T08:09:47.142Z,100346.22
2023-12-09T08:12:14.347Z,100348.63
2023-12-09T08:14:41.083Z,100353.22
2023-12-09T08:17:07.846Z,100337.97
2023-12-09T08:19:34.787Z,100332.72
2023-12-09T08:22:01.766Z,100317.84
2023-12-09T08:24:29.347Z,100319.28
2023-12-09T08:26:56.458Z,100310.81
2023-12-09T08:29:24.258Z,100310.81
2023-12-09T08:31:52.169Z,100311.06
2023-12-09T08:34:19.290Z,100311.97
2023-12-09T08:36:46.582Z,100317.97
2023-12-09T08:39:13.478Z,100318.38
2023-12-09T08:41:40.366Z,100320.81
2023-12-09T08:44:08.077Z,100316.97
2023-12-09T08:46:34.844Z,100319.53
2023-12-09T08:49:01.729Z,100312.13
2023-12-09T08:51:28.632Z,100323.63
2023-12-09T08:53:55.365Z,100324.81
2023-12-09T08:56:22.126Z,100315.03
2023-12-09T08:58:48.883Z,100304.53
2023-12-09T09:01:15.614Z,100310.31
2023-12-09T09:03:42.766Z,100312.47
2023-12-09T09:06:09.954Z,100310.94
2023-12-09T09:08:36.726Z,100305.91
2023-12-09T09:11:05.200Z,100318.16
2023-12-09T09:13:31.985Z,100303.00
2023-12-09T09:15:58.809Z,100295.94
2023-12-09T09:18:25.811Z,100282.44
2023-12-09T09:20:58.558Z,100272.97
2023-12-09T09:23:25.408Z,100265.63
2023-12-09T09:25:52.823Z,100269.72
2023-12-09T09:28:19.557Z,100255.53
2023-12-09T09:30:46.445Z,100247.53
2023-12-09T09:33:13.307Z,100247.19
2023-12-09T09:35:40.183Z,100250.59
2023-12-09T09:38:06.940Z,100246.38
2023-12-09T09:40:33.861Z,100240.16
2023-12-09T09:43:08.147Z,100217.47
2023-12-09T09:45:35.063Z,100223.03
2023-12-09T09:48:06.367Z,100207.16
2023-12-09T09:50:43.181Z,100191.44
2023-12-09T09:53:13.331Z,100188.97
2023-12-09T09:55:41.766Z,100175.38
2023-12-09T09:58:08.929Z,100169.91
2023-12-09T10:00:35.850Z,100153.66
2023-12-09T10:03:04.458Z,100132.56
2023-12-09T10:05:31.582Z,100129.56
2023-12-09T10:07:58.411Z,100129.00
2023-12-09T10:10:25.413Z,100122.38
2023-12-09T10:12:52.232Z,100118.63
2023-12-09T10:15:19.544Z,100114.44
2023-12-09T10:17:46.621Z,100106.25
2023-12-09T10:20:13.707Z,100106.59
2023-12-09T10:22:41.567Z,100105.97
2023-12-09T10:25:09.026Z,100107.75
2023-12-09T10:27:36.004Z,100105.09
2023-12-09T10:30:02.907Z,100093.66
2023-12-09T10:32:30.324Z,100085.44
2023-12-09T10:34:59.020Z,100083.00
2023-12-09T10:37:28.103Z,100070.25
2023-12-09T10:39:54.854Z,100074.84
2023-12-09T10:42:24.220Z,100065.44
2023-12-09T10:44:51.074Z,100052.97
2023-12-09T10:47:18.109Z,100050.13
2023-12-09T10:49:45.010Z,100041.69
2023-12-09T10:52:11.834Z,100030.66
2023-12-09T10:54:38.721Z,100007.38
2023-12-09T10:57:05.623Z,99991.97
2023-12-09T10:59:33.962Z,99992.75
2023-12-09T11:02:02.066Z,99987.44
2023-12-09T11:04:29.876Z,99980.47
2023-12-09T11:07:00.256Z,99984.28
2023-12-09T11:09:27.354Z,99963.13
2023-12-09T11:11:54.085Z,99951.09
2023-12-09T11:14:26.486Z,99941.66
2023-12-09T11:16:53.604Z,99945.78
2023-12-09T11:19:23.948Z,99924.53
2023-12-09T11:21:51.129Z,99922.19
2023-12-09T11:24:19.820Z,99913.88
2023-12-09T11:26:47.601Z,99897.13
2023-12-09T11:29:18.575Z,99902.53
2023-12-09T11:31:51.906Z,99885.63
2023-12-09T11:34:22.822Z,99882.75
2023-12-09T11:36:54.003Z,99849.97
2023-12-09T11:39:26.834Z,99837.31
2023-12-09T11:41:54.343Z,99823.22
2023-12-09T11:44:21.117Z,99822.34
2023-12-09T11:46:48.302Z,99828.69
2023-12-09T11:49:15.750Z,99824.91
2023-12-09T11:51:42.840Z,99823.28
2023-12-09T11:54:10.936Z,99816.44
2023-12-09T11:56:40.120Z,99799.00
2023-12-09T11:59:07.540Z,99793.72
2023-12-09T12:01:37.547Z,99802.00
2023-12-09T12:04:05.183Z,99787.41
2023-12-09T12:06:32.778Z,99781.38
2023-12-09T12:08:59.796Z,99774.50
2023-12-09T12:11:26.710Z,99774.41
2023-12-09T12:13:54.731Z,99769.13
2023-12-09T12:16:21.704Z,99765.63
2023-12-09T12:18:49.625Z,99744.56
2023-12-09T12:21:17.023Z,99738.31
2023-12-09T12:23:44.010Z,99722.44
2023-12-09T12:26:12.800Z,99708.28
2023-12-09T12:28:40.072Z,99704.56
2023-12-09T12:31:08.113Z,99690.81
2023-12-09T12:33:35.322Z,99674.72
2023-12-09T12:36:02.629Z,99667.41
2023-12-09T12:38:29.797Z,99655.03
2023-12-09T12:40:58.554Z,99638.84
2023-12-09T12:43:29.998Z,99622.00
2023-12-09T12:45:59.071Z,99609.28
2023-12-09T12:48:26.203Z,99606.97
2023-12-09T12:50:54.209Z,99583.75
2023-12-09T12:53:21.801Z,99568.72
2023-12-09T12:55:49.257Z,99562.47
2023-12-09T12:58:16.988Z,99553.84
2023-12-09T13:00:44.098Z,99552.19
2023-12-09T13:03:11.023Z,99559.50
2023-12-09T13:05:37.968Z,99542.91
2023-12-09T13:08:06.158Z,99539.00
2023-12-09T13:10:33.318Z,99518.94
2023-12-09T13:13:00.325Z,99500.41
2023-12-09T13:15:27.376Z,99500.81
2023-12-09T13:18:02.597Z,99488.44
2023-12-09T13:20:30.602Z,99487.06
2023-12-09T13:22:58.109Z,99472.81
2023-12-09T13:25:25.070Z,99461.56
2023-12-09T13:27:51.956Z,99442.59
2023-12-09T13:30:18.976Z,99423.56
2023-12-09T13:32:47.110Z,99425.38
2023-12-09T13:35:16.178Z,99406.69
2023-12-09T13:37:44.590Z,99396.88
2023-12-09T13:40:13.314Z,99393.00
2023-12-09T13:42:40.404Z,99393.13
2023-12-09T13:45:08.382Z,99397.56
2023-12-09T13:47:35.369Z,99381.81
2023-12-09T13:50:02.282Z,99383.59
2023-12-09T13:52:31.627Z,99385.19
2023-12-09T13:54:59.760Z,99379.34
2023-12-09T13:57:26.624Z,99368.16
2023-12-09T13:59:53.464Z,99359.72
2023-12-09T14:02:20.521Z,99354.63
2023-12-09T14:04:47.589Z,99339.50
2023-12-09T14:07:15.208Z,99343.06
2023-12-09T14:09:42.177Z,99321.22
2023-12-09T14:12:09.586Z,99306.38
2023-12-09T14:14:36.497Z,99299.41
2023-12-09T14:17:03.350Z,99290.03
2023-12-09T14:19:32.924Z,99287.59
2023-12-09T14:22:02.965Z,99264.72
2023-12-09T14:24:29.999Z,99252.06
2023-12-09T14:26:57.005Z,99254.38
2023-12-09T14:29:23.789Z,99236.59
2023-12-09T14:31:50.642Z,99244.31
2023-12-09T14:34:17.777Z,99223.34
2023-12-09T14:36:44.906Z,99225.78
2023-12-09T14:39:12.225Z,99205.41
2023-12-09T14:41:41.242Z,99198.78
2023-12-09T14:44:09.306Z,99202.25
2023-12-09T14:46:36.712Z,99195.94
2023-12-09T14:49:04.926Z,99180.88
2023-12-09T14:54:02.298Z,99166.69
2023-12-09T14:56:29.419Z,99167.75
2023-12-09T14:58:56.330Z,99147.00
2023-12-09T15:01:23.141Z,99141.53
2023-12-09T15:03:50.148Z,99130.69
2023-12-09T15:06:17.032Z,99136.28
2023-12-09T15:08:43.857Z,99100.41
2023-12-09T15:11:10.617Z,99093.97
2023-12-09T15:13:37.375Z,99080.06
2023-12-09T15:16:05.003Z,99047.41
2023-12-09T15:18:32.028Z,99061.09
2023-12-09T15:20:59.119Z,99040.19
2023-12-09T15:23:30.463Z,99027.59
2023-12-09T15:25:57.248Z,99007.59
2023-12-09T15:28:28.400Z,99011.97
2023-12-09T15:30:55.296Z,99004.31
2023-12-09T15:33:22.374Z,98991.97
2023-12-09T15:35:49.247Z,98989.88
2023-12-09T15:38:16.127Z,98995.94
2023-12-09T15:40:42.977Z,98976.59
2023-12-09T15:43:09.727Z,98973.41
2023-12-09T15:45:36.548Z,98976.47
2023-12-09T15:48:05.007Z,98955.00
2023-12-09T15:50:32.792Z,98942.53
2023-12-09T15:53:00.551Z,98942.34
2023-12-09T15:55:27.402Z,98936.03
2023-12-09T15:57:59.128Z,98928.22
2023-12-09T16:00:27.064Z,98917.19
2023-12-09T16:02:54.101Z,98918.34
2023-12-09T16:05:21.628Z,98898.94
2023-12-09T16:07:48.919Z,98899.13
2023-12-09T16:10:16.222Z,98886.47
2023-12-09T16:12:46.827Z,98896.50
2023-12-09T16:15:14.831Z,98888.28
2023-12-09T16:17:44.748Z,98895.22
2023-12-09T16:20:13.854Z,98900.72
2023-12-09T16:22:40.791Z,98893.91
2023-12-09T16:25:08.443Z,98886.94
2023-12-09T16:27:36.003Z,98867.72
2023-12-09T16:30:04.907Z,98878.09
2023-12-09T16:32:32.818Z,98882.91
2023-12-09T16:35:00.266Z,98894.19
2023-12-09T16:37:29.128Z,98861.47
2023-12-09T16:39:57.306Z,98887.59
2023-12-09T16:42:24.262Z,98873.00
2023-12-09T16:44:51.505Z,98865.09
2023-12-09T16:47:18.614Z,98862.09
2023-12-09T16:49:45.895Z,98852.47
2023-12-09T16:52:13.770Z,98857.28
2023-12-09T16:54:40.591Z,98845.19
2023-12-09T16:57:07.518Z,98847.34
2023-12-09T16:59:34.452Z,98851.69
2023-12-09T17:02:01.339Z,98842.66
2023-12-09T17:04:28.548Z,98856.25
2023-12-09T17:06:55.623Z,98866.25
2023-12-09T17:09:23.058Z,98861.69
2023-12-09T17:12:39.731Z,98867.84
2023-12-09T17:14:40.636Z,98847.09
2023-12-09T17:17:08.623Z,98839.38
2023-12-09T17:19:35.627Z,98847.09
2023-12-09T17:22:02.744Z,98843.47
2023-12-09T17:24:30.613Z,98841.34
2023-12-09T17:26:57.496Z,98849.97
2023-12-09T17:29:24.501Z,98852.75
2023-12-09T17:31:51.491Z,98837.22
2023-12-09T17:34:22.103Z,98850.94
2023-12-09T17:36:49.074Z,98857.97
2023-12-09T17:39:17.625Z,98829.31
2023-12-09T17:41:45.050Z,98828.84
2023-12-09T17:44:13.878Z,98829.47
2023-12-09T17:46:41.074Z,98834.38
2023-12-09T17:49:08.042Z,98828.94
2023-12-09T17:51:34.945Z,98832.69
2023-12-09T17:54:03.262Z,98836.75
2023-12-09T17:56:30.202Z,98826.19
2023-12-09T17:58:57.056Z,98825.59
2023-12-09T18:01:25.210Z,98812.53
2023-12-09T18:03:52.169Z,98802.34
2023-12-09T18:06:19.621Z,98823.81
2023-12-09T18:08:46.452Z,98822.50
2023-12-09T18:11:13.200Z,98817.22
2023-12-09T18:13:40.057Z,98807.63
2023-12-09T18:16:07.568Z,98807.50
2023-12-09T18:18:34.438Z,98809.66
2023-12-09T18:21:01.347Z,98807.03
2023-12-09T18:23:28.207Z,98810.38
2023-12-09T18:25:55.271Z,98819.75
2023-12-09T18:28:22.206Z,98836.38
2023-12-09T18:30:49.175Z,98859.09
2023-12-09T18:33:16.245Z,98831.84
2023-12-09T18:35:43.116Z,98846.72
2023-12-09T18:38:09.988Z,98832.81
2023-12-09T18:40:36.843Z,98814.69
2023-12-09T18:43:03.775Z,98808.72
2023-12-09T18:45:30.630Z,98811.84
2023-12-09T18:47:57.660Z,98805.47
2023-12-09T18:50:24.681Z,98810.28
2023-12-09T18:52:52.961Z,98822.41
2023-12-09T18:55:20.042Z,98843.53
2023-12-09T18:57:54.838Z,98865.13
2023-12-09T19:00:21.983Z,98859.25
2023-12-09T19:02:51.730Z,98847.59
2023-12-09T19:05:18.812Z,98855.28
2023-12-09T19:07:48.704Z,98853.25
2023-12-09T19:10:16.800Z,98848.81
2023-12-09T19:12:43.636Z,98858.78
2023-12-09T19:15:10.858Z,98872.44
2023-12-09T19:17:37.763Z,98866.31
2023-12-09T19:20:05.600Z,98879.06
2023-12-09T19:22:32.415Z,98882.91
2023-12-09T19:24:59.294Z,98879.66
2023-12-09T19:27:26.888Z,98865.63
2023-12-09T19:29:53.874Z,98872.56
2023-12-09T19:32:20.721Z,98869.69
2023-12-09T19:34:50.412Z,98860.06
2023-12-09T19:37:17.227Z,98870.66
2023-12-09T19:39:44.132Z,98878.19
2023-12-09T19:42:12.065Z,98889.03
2023-12-09T19:44:39.055Z,98879.06
2023-12-09T19:47:07.285Z,98880.63
2023-12-09T19:49:34.257Z,98878.69
2023-12-09T19:52:01.170Z,98892.63
2023-12-09T19:54:36.848Z,98900.44
2023-12-09T19:57:05.093Z,98899.47
2023-12-09T19:59:32.640Z,98908.94
2023-12-09T20:01:59.552Z,98903.28
2023-12-09T20:04:27.181Z,98924.94
2023-12-09T20:06:56.991Z,98941.63
2023-12-09T20:09:26.818Z,98952.53
2023-12-09T20:11:53.914Z,98969.56
2023-12-09T20:14:20.788Z,98969.78
2023-12-09T20:16:47.754Z,98968.59
2023-12-09T20:19:14.793Z,98980.94
2023-12-09T20:21:41.685Z,98987.41
2023-12-09T20:24:08.915Z,98991.09
2023-12-09T20:26:35.833Z,98996.72
2023-12-09T20:29:02.854Z,99011.50
2023-12-09T20:31:29.827Z,99024.72
2023-12-09T20:33:56.855Z,99033.00
2023-12-09T20:36:27.789Z,99029.53
2023-12-09T20:38:54.683Z,99039.88
2023-12-09T20:41:21.529Z,99055.38
2023-12-09T20:43:50.761Z,99058.59
2023-12-09T20:46:18.492Z,99060.56
2023-12-09T20:48:45.437Z,99057.91
2023-12-09T20:51:12.388Z,99077.88
2023-12-09T20:53:39.239Z,99071.59
2023-12-09T20:56:06.630Z,99091.38
2023-12-09T20:58:33.548Z,99094.47
2023-12-09T21:01:00.573Z,99095.16
2023-12-09T21:03:27.543Z,99105.28
2023-12-09T21:05:54.455Z,99103.25
2023-12-09T21:08:21.377Z,99111.44
2023-12-09T21:10:48.171Z,99115.66
2023-12-09T21:13:14.978Z,99126.63
2023-12-09T21:15:42.387Z,99138.66
2023-12-09T21:18:10.391Z,99140.19
2023-12-09T21:20:37.599Z,99132.97
2023-12-09T21:23:04.458Z,99139.69
2023-12-09T21:25:31.359Z,99142.50
2023-12-09T21:27:58.286Z,99150.56
2023-12-09T21:30:25.342Z,99162.09
2023-12-09T21:32:52.169Z,99170.16
2023-12-09T21:35:19.103Z,99172.81
2023-12-09T21:37:46.143Z,99179.22
2023-12-09T21:40:13.294Z,99181.03
2023-12-09T21:42:40.107Z,99179.44
2023-12-09T21:45:07.349Z,99184.75
2023-12-09T21:47:36.590Z,99191.72
2023-12-09T21:50:04.803Z,99205.81
2023-12-09T21:52:32.374Z,99206.78
2023-12-09T21:54:59.309Z,99210.38
2023-12-09T21:57:26.639Z,99209.53
2023-12-09T21:59:53.477Z,99212.34
2023-12-09T22:02:20.470Z,99216.69
2023-12-09T22:04:47.531Z,99232.69
2023-12-09T22:07:14.342Z,99237.09
2023-12-09T22:09:41.461Z,99245.91
2023-12-09T22:12:08.583Z,99242.38
2023-12-09T22:14:35.412Z,99251.09
2023-12-09T22:17:04.330Z,99272.88
2023-12-09T22:19:31.259Z,99255.28
2023-12-09T22:21:58.133Z,99264.19
2023-12-09T22:24:24.961Z,99267.09
2023-12-09T22:26:51.813Z,99287.41
2023-12-09T22:29:18.709Z,99286.34
2023-12-09T22:31:45.748Z,99295.97
2023-12-09T22:34:12.769Z,99307.31
2023-12-09T22:36:40.199Z,99314.19
2023-12-09T22:39:13.818Z,99330.88
2023-12-09T22:41:40.964Z,99329.09
2023-12-09T22:44:07.786Z,99344.13
2023-12-09T22:46:34.779Z,99342.47
2023-12-09T22:49:01.813Z,99373.25
2023-12-09T22:51:29.556Z,99368.94
2023-12-09T22:53:56.393Z,99375.22
2023-12-09T22:56:24.844Z,99367.97
2023-12-09T22:58:53.497Z,99380.50
2023-12-09T23:01:34.879Z,99386.50
2023-12-09T23:04:22.330Z,99388.56
2023-12-09T23:06:49.248Z,99402.66
2023-12-09T23:09:16.172Z,99412.28
2023-12-09T23:11:43.068Z,99406.38
2023-12-09T23:14:10.654Z,99416.13
2023-12-09T23:16:37.485Z,99433.69
2023-12-09T23:19:04.566Z,99430.81
2023-12-09T23:21:31.494Z,99451.06
2023-12-09T23:23:58.320Z,99434.31
2023-12-09T23:26:25.096Z,99443.59
2023-12-09T23:28:51.932Z,99443.66
2023-12-09T23:31:25.329Z,99457.66
2023-12-09T23:33:58.079Z,99459.22
2023-12-09T23:36:25.119Z,99457.53
2023-12-09T23:38:52.049Z,99461.66
2023-12-09T23:41:18.846Z,99460.91
2023-12-09T23:43:45.748Z,99453.19
2023-12-09T23:46:17.750Z,99452.97
2023-12-09T23:48:44.744Z,99456.47
2023-12-09T23:51:12.179Z,99464.16
2023-12-09T23:53:39.071Z,99462.50
2023-12-09T23:56:07.394Z,99471.25
2023-12-09T23:58:34.592Z,99465.84
